sensor_id;sensor_type;location;lat;lon;timestamp;temperature;humidity
67893;DHT22;54688;52.376;16.744;2023-05-07T00:02:02;6.8;82.1
67893;DHT22;54688;52.376;16.744;2023-05-07T00:05:04;6.8;82.1
67893;DHT22;54688;52.376;16.744;2023-05-07T00:11:06;6.8;81.7
67893;DHT22;54688;52.376;16.744;2023-05-07T00:14:08;6.8;80.8
67893;DHT22;54688;52.376;16.744;2023-05-07T00:17:11;6.8;81.7
67893;DHT22;54688;52.376;16.744;2023-05-07T00:20:13;6.8;81.7
67893;DHT22;54688;52.376;16.744;2023-05-07T00:23:15;6.7;81.6
67893;DHT22;54688;52.376;16.744;2023-05-07T00:26:17;6.7;82.5
67893;DHT22;54688;52.376;16.744;2023-05-07T00:29:19;6.7;81.7
67893;DHT22;54688;52.376;16.744;2023-05-07T00:32:21;6.7;81.6
67893;DHT22;54688;52.376;16.744;2023-05-07T00:35:24;6.7;81.5
67893;DHT22;54688;52.376;16.744;2023-05-07T00:38:26;6.7;81.3
67893;DHT22;54688;52.376;16.744;2023-05-07T00:41:29;6.7;81.3
67893;DHT22;54688;52.376;16.744;2023-05-07T00:44:31;6.7;81.4
67893;DHT22;54688;52.376;16.744;2023-05-07T00:47:33;6.6;81.5
67893;DHT22;54688;52.376;16.744;2023-05-07T00:50:35;6.6;81.5
67893;DHT22;54688;52.376;16.744;2023-05-07T00:53:37;6.6;81.5
67893;DHT22;54688;52.376;16.744;2023-05-07T00:56:39;6.6;81.5
67893;DHT22;54688;52.376;16.744;2023-05-07T00:59:42;6.6;81.5
67893;DHT22;54688;52.376;16.744;2023-05-07T01:02:44;6.6;81.4
67893;DHT22;54688;52.376;16.744;2023-05-07T01:05:46;6.6;81.5
67893;DHT22;54688;52.376;16.744;2023-05-07T01:08:49;6.6;81.6
67893;DHT22;54688;52.376;16.744;2023-05-07T01:11:51;6.6;81.6
67893;DHT22;54688;52.376;16.744;2023-05-07T01:14:55;6.6;81.7
67893;DHT22;54688;52.376;16.744;2023-05-07T01:17:57;6.5;81.7
67893;DHT22;54688;52.376;16.744;2023-05-07T01:20:59;6.5;81.5
67893;DHT22;54688;52.376;16.744;2023-05-07T01:24:05;6.4;81.6
67893;DHT22;54688;52.376;16.744;2023-05-07T01:27:08;6.4;81.6
67893;DHT22;54688;52.376;16.744;2023-05-07T01:30:10;6.3;81.6
67893;DHT22;54688;52.376;16.744;2023-05-07T01:33:13;6.3;81.8
67893;DHT22;54688;52.376;16.744;2023-05-07T01:36:17;6.2;81.9
67893;DHT22;54688;52.376;16.744;2023-05-07T01:39:22;6.1;82
67893;DHT22;54688;52.376;16.744;2023-05-07T01:42:25;6.1;82.3
67893;DHT22;54688;52.376;16.744;2023-05-07T01:45:28;6.1;82.7
67893;DHT22;54688;52.376;16.744;2023-05-07T01:48:30;6;83
67893;DHT22;54688;52.376;16.744;2023-05-07T01:51:32;6;83.1
67893;DHT22;54688;52.376;16.744;2023-05-07T01:54:35;6.1;83.2
67893;DHT22;54688;52.376;16.744;2023-05-07T01:57:37;6;82.4
67893;DHT22;54688;52.376;16.744;2023-05-07T02:00:39;6;83.1
67893;DHT22;54688;52.376;16.744;2023-05-07T02:03:42;6;83
67893;DHT22;54688;52.376;16.744;2023-05-07T02:06:44;6;82.8
67893;DHT22;54688;52.376;16.744;2023-05-07T02:09:46;5.9;82.8
67893;DHT22;54688;52.376;16.744;2023-05-07T02:12:47;5.8;82.8
67893;DHT22;54688;52.376;16.744;2023-05-07T02:18:48;5.7;82.8
67893;DHT22;54688;52.376;16.744;2023-05-07T02:21:51;5.7;83
67893;DHT22;54688;52.376;16.744;2023-05-07T02:24:53;5.6;83.2
67893;DHT22;54688;52.376;16.744;2023-05-07T02:27:55;5.6;83.6
67893;DHT22;54688;52.376;16.744;2023-05-07T02:30:57;5.6;83.9
67893;DHT22;54688;52.376;16.744;2023-05-07T02:33:59;5.7;84.3
67893;DHT22;54688;52.376;16.744;2023-05-07T02:37:01;5.7;84.4
67893;DHT22;54688;52.376;16.744;2023-05-07T02:40:04;5.7;84.5
67893;DHT22;54688;52.376;16.744;2023-05-07T02:43:07;5.8;84.5
67893;DHT22;54688;52.376;16.744;2023-05-07T02:46:10;5.8;84.4
67893;DHT22;54688;52.376;16.744;2023-05-07T02:49:12;5.8;84.3
67893;DHT22;54688;52.376;16.744;2023-05-07T02:52:14;5.9;84.1
67893;DHT22;54688;52.376;16.744;2023-05-07T02:55:16;5.9;84
67893;DHT22;54688;52.376;16.744;2023-05-07T02:58:18;5.9;83.7
67893;DHT22;54688;52.376;16.744;2023-05-07T03:01:21;5.8;83.3
67893;DHT22;54688;52.376;16.744;2023-05-07T03:04:23;5.8;83.2
67893;DHT22;54688;52.376;16.744;2023-05-07T03:07:25;5.7;83.3
67893;DHT22;54688;52.376;16.744;2023-05-07T03:10:27;5.7;83.4
67893;DHT22;54688;52.376;16.744;2023-05-07T03:16:28;5.7;83.6
67893;DHT22;54688;52.376;16.744;2023-05-07T03:19:30;5.7;83.7
67893;DHT22;54688;52.376;16.744;2023-05-07T03:22:31;5.7;83.7
67893;DHT22;54688;52.376;16.744;2023-05-07T03:25:33;5.7;83.7
67893;DHT22;54688;52.376;16.744;2023-05-07T03:31:35;5.8;83.7
67893;DHT22;54688;52.376;16.744;2023-05-07T03:34:38;5.8;83.6
67893;DHT22;54688;52.376;16.744;2023-05-07T03:37:40;5.8;83.5
67893;DHT22;54688;52.376;16.744;2023-05-07T03:40:42;5.9;83.5
67893;DHT22;54688;52.376;16.744;2023-05-07T03:43:44;5.9;83.5
67893;DHT22;54688;52.376;16.744;2023-05-07T03:46:46;5.9;83.4
67893;DHT22;54688;52.376;16.744;2023-05-07T03:49:48;5.9;83.4
67893;DHT22;54688;52.376;16.744;2023-05-07T03:52:50;6;83.4
67893;DHT22;54688;52.376;16.744;2023-05-07T03:58:52;6;83.1
67893;DHT22;54688;52.376;16.744;2023-05-07T04:01:54;6;83
67893;DHT22;54688;52.376;16.744;2023-05-07T04:04:56;5.9;82.9
67893;DHT22;54688;52.376;16.744;2023-05-07T04:07:58;5.9;82.8
67893;DHT22;54688;52.376;16.744;2023-05-07T04:11:01;5.9;82.9
67893;DHT22;54688;52.376;16.744;2023-05-07T04:14:03;5.9;83.2
67893;DHT22;54688;52.376;16.744;2023-05-07T04:17:05;5.8;83.6
67893;DHT22;54688;52.376;16.744;2023-05-07T04:20:08;5.9;83.8
67893;DHT22;54688;52.376;16.744;2023-05-07T04:23:10;6;84
67893;DHT22;54688;52.376;16.744;2023-05-07T04:26:12;6.1;83.9
67893;DHT22;54688;52.376;16.744;2023-05-07T04:29:15;6.1;83.8
67893;DHT22;54688;52.376;16.744;2023-05-07T04:32:16;6.2;84.3
67893;DHT22;54688;52.376;16.744;2023-05-07T04:35:18;6.3;83.2
67893;DHT22;54688;52.376;16.744;2023-05-07T04:38:21;6.4;83
67893;DHT22;54688;52.376;16.744;2023-05-07T04:41:23;6.4;82.7
67893;DHT22;54688;52.376;16.744;2023-05-07T04:44:26;6.5;82.5
67893;DHT22;54688;52.376;16.744;2023-05-07T04:47:28;6.6;82.1
67893;DHT22;54688;52.376;16.744;2023-05-07T04:50:30;6.6;81.9
67893;DHT22;54688;52.376;16.744;2023-05-07T04:53:32;6.6;81.7
67893;DHT22;54688;52.376;16.744;2023-05-07T04:56:34;6.5;81.4
67893;DHT22;54688;52.376;16.744;2023-05-07T04:59:35;6.5;81.3
67893;DHT22;54688;52.376;16.744;2023-05-07T05:02:37;6.4;81.1
67893;DHT22;54688;52.376;16.744;2023-05-07T05:05:39;6.4;81
67893;DHT22;54688;52.376;16.744;2023-05-07T05:08:42;6.4;81.3
67893;DHT22;54688;52.376;16.744;2023-05-07T05:11:44;6.3;81.5
67893;DHT22;54688;52.376;16.744;2023-05-07T05:14:46;6.4;82.2
67893;DHT22;54688;52.376;16.744;2023-05-07T05:17:48;6.4;82.3
67893;DHT22;54688;52.376;16.744;2023-05-07T05:20:51;6.5;82.2
67893;DHT22;54688;52.376;16.744;2023-05-07T05:23:52;6.6;81.7
67893;DHT22;54688;52.376;16.744;2023-05-07T05:26:55;6.8;81
67893;DHT22;54688;52.376;16.744;2023-05-07T05:29:57;6.8;80.5
67893;DHT22;54688;52.376;16.744;2023-05-07T05:32:59;6.9;80.4
67893;DHT22;54688;52.376;16.744;2023-05-07T05:36:01;6.9;80.1
67893;DHT22;54688;52.376;16.744;2023-05-07T05:39:04;6.9;80
67893;DHT22;54688;52.376;16.744;2023-05-07T05:42:05;7;79.9
67893;DHT22;54688;52.376;16.744;2023-05-07T05:45:08;7.1;79.5
67893;DHT22;54688;52.376;16.744;2023-05-07T05:48:11;7.1;78.8
67893;DHT22;54688;52.376;16.744;2023-05-07T05:51:13;7.2;78.7
67893;DHT22;54688;52.376;16.744;2023-05-07T05:54:15;7.2;78.4
67893;DHT22;54688;52.376;16.744;2023-05-07T05:57:17;7.2;78.3
67893;DHT22;54688;52.376;16.744;2023-05-07T06:00:19;7.2;77.8
67893;DHT22;54688;52.376;16.744;2023-05-07T06:03:21;7.2;77.5
67893;DHT22;54688;52.376;16.744;2023-05-07T06:06:24;7.2;77.3
67893;DHT22;54688;52.376;16.744;2023-05-07T06:09:26;7.2;76.6
67893;DHT22;54688;52.376;16.744;2023-05-07T06:12:28;7.2;76.8
67893;DHT22;54688;52.376;16.744;2023-05-07T06:15:30;7.2;76.9
67893;DHT22;54688;52.376;16.744;2023-05-07T06:18:32;7.2;76.9
67893;DHT22;54688;52.376;16.744;2023-05-07T06:21:34;7.2;76.9
67893;DHT22;54688;52.376;16.744;2023-05-07T06:24:36;7.3;77
67893;DHT22;54688;52.376;16.744;2023-05-07T06:27:38;7.3;76
67893;DHT22;54688;52.376;16.744;2023-05-07T06:30:40;7.3;75.7
67893;DHT22;54688;52.376;16.744;2023-05-07T06:33:42;7.4;75.8
67893;DHT22;54688;52.376;16.744;2023-05-07T06:36:45;7.4;75.7
67893;DHT22;54688;52.376;16.744;2023-05-07T06:39:47;7.4;75.1
67893;DHT22;54688;52.376;16.744;2023-05-07T06:42:48;7.5;74.5
67893;DHT22;54688;52.376;16.744;2023-05-07T06:45:50;7.6;74.9
67893;DHT22;54688;52.376;16.744;2023-05-07T06:48:52;7.6;75.2
67893;DHT22;54688;52.376;16.744;2023-05-07T06:51:54;7.7;74
67893;DHT22;54688;52.376;16.744;2023-05-07T06:54:56;7.7;74.3
67893;DHT22;54688;52.376;16.744;2023-05-07T06:57:58;7.8;74.6
67893;DHT22;54688;52.376;16.744;2023-05-07T07:01:00;7.8;73.9
67893;DHT22;54688;52.376;16.744;2023-05-07T07:04:03;7.9;74.2
67893;DHT22;54688;52.376;16.744;2023-05-07T07:07:05;7.9;73.8
67893;DHT22;54688;52.376;16.744;2023-05-07T07:10:07;8;73.4
67893;DHT22;54688;52.376;16.744;2023-05-07T07:13:10;8;72.7
67893;DHT22;54688;52.376;16.744;2023-05-07T07:16:12;8.1;72.6
67893;DHT22;54688;52.376;16.744;2023-05-07T07:19:14;8.1;72.4
67893;DHT22;54688;52.376;16.744;2023-05-07T07:22:16;8.2;72.9
67893;DHT22;54688;52.376;16.744;2023-05-07T07:25:18;8.3;73
67893;DHT22;54688;52.376;16.744;2023-05-07T07:28:20;8.5;73.1
67893;DHT22;54688;52.376;16.744;2023-05-07T07:31:22;8.7;73.3
67893;DHT22;54688;52.376;16.744;2023-05-07T07:34:24;8.9;73.2
67893;DHT22;54688;52.376;16.744;2023-05-07T07:37:26;9.1;72
67893;DHT22;54688;52.376;16.744;2023-05-07T07:40:28;9.2;70.5
67893;DHT22;54688;52.376;16.744;2023-05-07T07:43:29;9.3;69.2
67893;DHT22;54688;52.376;16.744;2023-05-07T07:46:31;9.4;68.2
67893;DHT22;54688;52.376;16.744;2023-05-07T07:49:33;9.6;67.3
67893;DHT22;54688;52.376;16.744;2023-05-07T07:52:35;9.7;67.7
67893;DHT22;54688;52.376;16.744;2023-05-07T07:55:38;9.8;67.4
67893;DHT22;54688;52.376;16.744;2023-05-07T07:58:40;9.9;67.5
67893;DHT22;54688;52.376;16.744;2023-05-07T08:01:42;10.1;67.2
67893;DHT22;54688;52.376;16.744;2023-05-07T08:04:44;10.2;67.1
67893;DHT22;54688;52.376;16.744;2023-05-07T08:07:46;10.4;66.9
67893;DHT22;54688;52.376;16.744;2023-05-07T08:10:48;10.6;66.4
67893;DHT22;54688;52.376;16.744;2023-05-07T08:13:50;10.8;66.1
67893;DHT22;54688;52.376;16.744;2023-05-07T08:16:52;11;65.7
67893;DHT22;54688;52.376;16.744;2023-05-07T08:19:54;11.2;63.9
67893;DHT22;54688;52.376;16.744;2023-05-07T08:22:56;11.3;65.6
67893;DHT22;54688;52.376;16.744;2023-05-07T08:25:58;11.4;63.7
67893;DHT22;54688;52.376;16.744;2023-05-07T08:29:00;11.6;64.1
67893;DHT22;54688;52.376;16.744;2023-05-07T08:35:02;12;63.4
67893;DHT22;54688;52.376;16.744;2023-05-07T08:38:04;12.1;65
67893;DHT22;54688;52.376;16.744;2023-05-07T08:41:06;12.2;63.2
67893;DHT22;54688;52.376;16.744;2023-05-07T08:44:12;12.3;62.5
67893;DHT22;54688;52.376;16.744;2023-05-07T08:47:15;12.4;63.3
67893;DHT22;54688;52.376;16.744;2023-05-07T08:50:18;12.6;63.7
67893;DHT22;54688;52.376;16.744;2023-05-07T08:53:21;12.8;64.5
67893;DHT22;54688;52.376;16.744;2023-05-07T08:56:23;12.8;62.6
67893;DHT22;54688;52.376;16.744;2023-05-07T08:59:25;13;59.1
67893;DHT22;54688;52.376;16.744;2023-05-07T09:02:27;13;60.6
67893;DHT22;54688;52.376;16.744;2023-05-07T09:05:30;13.1;61.7
67893;DHT22;54688;52.376;16.744;2023-05-07T09:08:32;13.2;60
67893;DHT22;54688;52.376;16.744;2023-05-07T09:11:36;13.3;59.8
67893;DHT22;54688;52.376;16.744;2023-05-07T09:14:38;13.4;58.6
67893;DHT22;54688;52.376;16.744;2023-05-07T09:17:40;13.4;58.4
67893;DHT22;54688;52.376;16.744;2023-05-07T09:20:42;13.6;59.6
67893;DHT22;54688;52.376;16.744;2023-05-07T09:23:44;13.7;58.8
67893;DHT22;54688;52.376;16.744;2023-05-07T09:26:46;13.9;57.5
67893;DHT22;54688;52.376;16.744;2023-05-07T09:29:48;14;57.6
67893;DHT22;54688;52.376;16.744;2023-05-07T09:32:50;14;56.9
67893;DHT22;54688;52.376;16.744;2023-05-07T09:35:52;14;55.5
67893;DHT22;54688;52.376;16.744;2023-05-07T09:38:55;14;56.4
67893;DHT22;54688;52.376;16.744;2023-05-07T09:41:57;14;57
67893;DHT22;54688;52.376;16.744;2023-05-07T09:44:59;14;55.8
67893;DHT22;54688;52.376;16.744;2023-05-07T09:48:01;14.1;56.5
67893;DHT22;54688;52.376;16.744;2023-05-07T09:51:09;14.1;55.1
67893;DHT22;54688;52.376;16.744;2023-05-07T09:54:18;14.2;55.6
67893;DHT22;54688;52.376;16.744;2023-05-07T09:57:20;14.3;56.5
67893;DHT22;54688;52.376;16.744;2023-05-07T10:00:25;14.4;54.7
67893;DHT22;54688;52.376;16.744;2023-05-07T10:03:27;14.4;55.8
67893;DHT22;54688;52.376;16.744;2023-05-07T10:06:32;14.5;54.7
67893;DHT22;54688;52.376;16.744;2023-05-07T10:09:36;14.6;55.4
67893;DHT22;54688;52.376;16.744;2023-05-07T10:12:39;14.7;54.8
67893;DHT22;54688;52.376;16.744;2023-05-07T10:15:42;14.8;53.3
67893;DHT22;54688;52.376;16.744;2023-05-07T10:18:45;14.8;53.7
67893;DHT22;54688;52.376;16.744;2023-05-07T10:21:50;14.9;53.3
67893;DHT22;54688;52.376;16.744;2023-05-07T10:24:56;14.9;54.4
67893;DHT22;54688;52.376;16.744;2023-05-07T10:28:03;15;52.7
67893;DHT22;54688;52.376;16.744;2023-05-07T10:31:12;15.2;51.3
67893;DHT22;54688;52.376;16.744;2023-05-07T10:34:26;15.2;52.7
67893;DHT22;54688;52.376;16.744;2023-05-07T10:37:32;15.2;50.7
67893;DHT22;54688;52.376;16.744;2023-05-07T10:40:34;15.3;51.3
67893;DHT22;54688;52.376;16.744;2023-05-07T10:43:38;15.4;51.5
67893;DHT22;54688;52.376;16.744;2023-05-07T10:46:41;15.4;51.6
67893;DHT22;54688;52.376;16.744;2023-05-07T10:50:46;15.4;51.3
67893;DHT22;54688;52.376;16.744;2023-05-07T10:53:48;15.4;52.2
67893;DHT22;54688;52.376;16.744;2023-05-07T10:56:50;15.4;51.4
67893;DHT22;54688;52.376;16.744;2023-05-07T10:59:52;15.4;52.2
67893;DHT22;54688;52.376;16.744;2023-05-07T11:03:09;15.5;50.2
67893;DHT22;54688;52.376;16.744;2023-05-07T11:06:12;15.5;50.8
67893;DHT22;54688;52.376;16.744;2023-05-07T11:09:15;15.5;50.6
67893;DHT22;54688;52.376;16.744;2023-05-07T11:12:17;15.5;50
67893;DHT22;54688;52.376;16.744;2023-05-07T11:15:50;15.5;49.6
67893;DHT22;54688;52.376;16.744;2023-05-07T11:18:53;15.5;49.4
67893;DHT22;54688;52.376;16.744;2023-05-07T11:21:56;15.6;49.1
67893;DHT22;54688;52.376;16.744;2023-05-07T11:24:59;15.8;51.1
67893;DHT22;54688;52.376;16.744;2023-05-07T11:28:04;16;49.7
67893;DHT22;54688;52.376;16.744;2023-05-07T11:31:07;16.1;49.8
67893;DHT22;54688;52.376;16.744;2023-05-07T11:34:10;16.2;49.7
67893;DHT22;54688;52.376;16.744;2023-05-07T11:37:15;16.4;49.3
67893;DHT22;54688;52.376;16.744;2023-05-07T11:40:18;16.5;48.5
67893;DHT22;54688;52.376;16.744;2023-05-07T11:43:21;16.7;46.4
67893;DHT22;54688;52.376;16.744;2023-05-07T11:46:23;16.7;46.4
67893;DHT22;54688;52.376;16.744;2023-05-07T11:49:26;16.7;46
67893;DHT22;54688;52.376;16.744;2023-05-07T11:52:28;16.7;46
67893;DHT22;54688;52.376;16.744;2023-05-07T11:55:30;16.8;46.9
67893;DHT22;54688;52.376;16.744;2023-05-07T11:58:32;16.8;47.4
67893;DHT22;54688;52.376;16.744;2023-05-07T12:01:35;17;45.7
67893;DHT22;54688;52.376;16.744;2023-05-07T12:04:37;17.1;47
67893;DHT22;54688;52.376;16.744;2023-05-07T12:07:39;17.3;45.3
67893;DHT22;54688;52.376;16.744;2023-05-07T12:10:42;17.4;46.4
67893;DHT22;54688;52.376;16.744;2023-05-07T12:13:44;17.4;45.2
67893;DHT22;54688;52.376;16.744;2023-05-07T12:16:47;17.4;45
67893;DHT22;54688;52.376;16.744;2023-05-07T12:19:49;17.2;45.5
67893;DHT22;54688;52.376;16.744;2023-05-07T12:22:52;17.2;45.5
67893;DHT22;54688;52.376;16.744;2023-05-07T12:25:55;17.1;45
67893;DHT22;54688;52.376;16.744;2023-05-07T12:28:57;17;46.2
67893;DHT22;54688;52.376;16.744;2023-05-07T12:31:59;16.9;45.8
67893;DHT22;54688;52.376;16.744;2023-05-07T12:35:02;16.9;45.9
67893;DHT22;54688;52.376;16.744;2023-05-07T12:38:07;16.9;45.3
67893;DHT22;54688;52.376;16.744;2023-05-07T12:41:10;17.1;45.3
67893;DHT22;54688;52.376;16.744;2023-05-07T12:44:12;17.3;43.8
67893;DHT22;54688;52.376;16.744;2023-05-07T12:47:16;17.4;44.7
67893;DHT22;54688;52.376;16.744;2023-05-07T12:50:19;17.8;43.8
67893;DHT22;54688;52.376;16.744;2023-05-07T12:53:22;18.1;44.1
67893;DHT22;54688;52.376;16.744;2023-05-07T12:56:26;18.5;40.9
67893;DHT22;54688;52.376;16.744;2023-05-07T12:59:32;18.8;41.8
67893;DHT22;54688;52.376;16.744;2023-05-07T13:02:37;19.2;42
67893;DHT22;54688;52.376;16.744;2023-05-07T13:05:40;19.6;39.6
67893;DHT22;54688;52.376;16.744;2023-05-07T13:08:42;19.9;39.5
67893;DHT22;54688;52.376;16.744;2023-05-07T13:11:43;20.2;39
67893;DHT22;54688;52.376;16.744;2023-05-07T13:14:45;20.4;38.5
67893;DHT22;54688;52.376;16.744;2023-05-07T13:17:47;20.6;38.3
67893;DHT22;54688;52.376;16.744;2023-05-07T13:20:49;20.8;37.5
67893;DHT22;54688;52.376;16.744;2023-05-07T13:23:51;21;37.6
67893;DHT22;54688;52.376;16.744;2023-05-07T13:26:53;21.3;36
67893;DHT22;54688;52.376;16.744;2023-05-07T13:29:55;21.5;37.1
67893;DHT22;54688;52.376;16.744;2023-05-07T13:32:57;21.7;35.4
67893;DHT22;54688;52.376;16.744;2023-05-07T13:35:59;21.8;34.7
67893;DHT22;54688;52.376;16.744;2023-05-07T13:39:02;21.9;35.6
67893;DHT22;54688;52.376;16.744;2023-05-07T13:42:04;22.1;33.4
67893;DHT22;54688;52.376;16.744;2023-05-07T13:45:07;22.2;33.8
67893;DHT22;54688;52.376;16.744;2023-05-07T13:48:10;22.3;34.2
67893;DHT22;54688;52.376;16.744;2023-05-07T13:51:12;22.3;32.9
67893;DHT22;54688;52.376;16.744;2023-05-07T13:54:14;22.2;34
67893;DHT22;54688;52.376;16.744;2023-05-07T13:57:16;22;32.6
67893;DHT22;54688;52.376;16.744;2023-05-07T14:00:19;21.9;35.1
67893;DHT22;54688;52.376;16.744;2023-05-07T14:03:21;21.7;35.1
67893;DHT22;54688;52.376;16.744;2023-05-07T14:06:22;21.5;34.1
67893;DHT22;54688;52.376;16.744;2023-05-07T14:09:25;21.2;34.1
67893;DHT22;54688;52.376;16.744;2023-05-07T14:12:27;20.8;34.8
67893;DHT22;54688;52.376;16.744;2023-05-07T14:15:28;20.6;35.6
67893;DHT22;54688;52.376;16.744;2023-05-07T14:18:30;20.1;35.9
67893;DHT22;54688;52.376;16.744;2023-05-07T14:21:32;19.9;36.1
67893;DHT22;54688;52.376;16.744;2023-05-07T14:24:34;19.6;37.2
67893;DHT22;54688;52.376;16.744;2023-05-07T14:27:36;19.5;37
67893;DHT22;54688;52.376;16.744;2023-05-07T14:30:38;19.4;36.5
67893;DHT22;54688;52.376;16.744;2023-05-07T14:33:41;19.4;36.8
67893;DHT22;54688;52.376;16.744;2023-05-07T14:36:43;19.3;37.6
67893;DHT22;54688;52.376;16.744;2023-05-07T14:39:45;19.4;37.7
67893;DHT22;54688;52.376;16.744;2023-05-07T14:42:48;19.3;37.3
67893;DHT22;54688;52.376;16.744;2023-05-07T14:45:50;19.2;37.3
67893;DHT22;54688;52.376;16.744;2023-05-07T14:48:52;19.3;37.5
67893;DHT22;54688;52.376;16.744;2023-05-07T14:51:56;19.3;37.4
67893;DHT22;54688;52.376;16.744;2023-05-07T14:54:58;19.2;36.5
67893;DHT22;54688;52.376;16.744;2023-05-07T14:58:01;19.1;37.2
67893;DHT22;54688;52.376;16.744;2023-05-07T15:01:04;19;38.1
67893;DHT22;54688;52.376;16.744;2023-05-07T15:04:05;19.1;37.4
67893;DHT22;54688;52.376;16.744;2023-05-07T15:07:08;19.1;38.5
67893;DHT22;54688;52.376;16.744;2023-05-07T15:10:09;19;38.1
67893;DHT22;54688;52.376;16.744;2023-05-07T15:13:11;19.2;37.4
67893;DHT22;54688;52.376;16.744;2023-05-07T15:16:14;19.6;36.6
67893;DHT22;54688;52.376;16.744;2023-05-07T15:19:17;20.1;36.3
67893;DHT22;54688;52.376;16.744;2023-05-07T15:22:18;20.5;34.8
67893;DHT22;54688;52.376;16.744;2023-05-07T15:25:20;20.7;34.4
67893;DHT22;54688;52.376;16.744;2023-05-07T15:28:22;20.8;33
67893;DHT22;54688;52.376;16.744;2023-05-07T15:31:24;20.7;32.8
67893;DHT22;54688;52.376;16.744;2023-05-07T15:34:26;20.4;32.8
67893;DHT22;54688;52.376;16.744;2023-05-07T15:37:30;20.3;34.9
67893;DHT22;54688;52.376;16.744;2023-05-07T15:40:32;20.3;34
67893;DHT22;54688;52.376;16.744;2023-05-07T15:43:36;20.2;35.9
67893;DHT22;54688;52.376;16.744;2023-05-07T15:46:46;20;33.8
67893;DHT22;54688;52.376;16.744;2023-05-07T15:49:48;19.8;34
67893;DHT22;54688;52.376;16.744;2023-05-07T15:52:50;19.9;35.1
67893;DHT22;54688;52.376;16.744;2023-05-07T15:55:53;20.3;34.4
67893;DHT22;54688;52.376;16.744;2023-05-07T15:58:55;21;34.8
67893;DHT22;54688;52.376;16.744;2023-05-07T16:01:57;21.8;32.4
67893;DHT22;54688;52.376;16.744;2023-05-07T16:04:58;22.3;30.4
67893;DHT22;54688;52.376;16.744;2023-05-07T16:08:00;22.3;29.5
67893;DHT22;54688;52.376;16.744;2023-05-07T16:11:02;22;30
67893;DHT22;54688;52.376;16.744;2023-05-07T16:14:06;21.4;30.2
67893;DHT22;54688;52.376;16.744;2023-05-07T16:17:08;21;31.7
67893;DHT22;54688;52.376;16.744;2023-05-07T16:20:10;20.7;31.8
67893;DHT22;54688;52.376;16.744;2023-05-07T16:23:12;20.8;32.7
67893;DHT22;54688;52.376;16.744;2023-05-07T16:26:14;21.2;32.3
67893;DHT22;54688;52.376;16.744;2023-05-07T16:29:15;21.6;32.8
67893;DHT22;54688;52.376;16.744;2023-05-07T16:32:17;22.1;32.1
67893;DHT22;54688;52.376;16.744;2023-05-07T16:35:19;22.5;30.1
67893;DHT22;54688;52.376;16.744;2023-05-07T16:38:23;23;28.8
67893;DHT22;54688;52.376;16.744;2023-05-07T16:41:25;23.1;28.3
67893;DHT22;54688;52.376;16.744;2023-05-07T16:44:27;23.2;28.8
67893;DHT22;54688;52.376;16.744;2023-05-07T16:47:29;23.1;28.1
67893;DHT22;54688;52.376;16.744;2023-05-07T16:50:32;22.7;28.6
67893;DHT22;54688;52.376;16.744;2023-05-07T16:53:34;22.3;29.5
67893;DHT22;54688;52.376;16.744;2023-05-07T16:56:36;22;30
67893;DHT22;54688;52.376;16.744;2023-05-07T16:59:39;22;31
67893;DHT22;54688;52.376;16.744;2023-05-07T17:02:41;22;29.9
67893;DHT22;54688;52.376;16.744;2023-05-07T17:05:43;22.2;29.8
67893;DHT22;54688;52.376;16.744;2023-05-07T17:08:45;22.3;30
67893;DHT22;54688;52.376;16.744;2023-05-07T17:11:47;22.3;29.5
67893;DHT22;54688;52.376;16.744;2023-05-07T17:14:49;22.4;29.3
67893;DHT22;54688;52.376;16.744;2023-05-07T17:17:53;22.3;29.9
67893;DHT22;54688;52.376;16.744;2023-05-07T17:20:55;22;29.9
67893;DHT22;54688;52.376;16.744;2023-05-07T17:23:57;21.4;30.5
67893;DHT22;54688;52.376;16.744;2023-05-07T17:26:58;20.9;30.4
67893;DHT22;54688;52.376;16.744;2023-05-07T17:30:00;20.3;31.7
67893;DHT22;54688;52.376;16.744;2023-05-07T17:33:01;19.7;32.8
67893;DHT22;54688;52.376;16.744;2023-05-07T17:36:03;19.2;33.8
67893;DHT22;54688;52.376;16.744;2023-05-07T17:39:06;18.7;35.4
67893;DHT22;54688;52.376;16.744;2023-05-07T17:42:07;18.5;35.1
67893;DHT22;54688;52.376;16.744;2023-05-07T17:45:09;18.3;36.2
67893;DHT22;54688;52.376;16.744;2023-05-07T17:48:11;18.1;36.7
67893;DHT22;54688;52.376;16.744;2023-05-07T17:51:13;17.9;37
67893;DHT22;54688;52.376;16.744;2023-05-07T17:54:15;17.7;36.9
67893;DHT22;54688;52.376;16.744;2023-05-07T17:57:16;17.4;37.2
67893;DHT22;54688;52.376;16.744;2023-05-07T18:00:18;17.1;37.8
67893;DHT22;54688;52.376;16.744;2023-05-07T18:03:21;16.7;38.6
67893;DHT22;54688;52.376;16.744;2023-05-07T18:06:22;16.5;39.6
67893;DHT22;54688;52.376;16.744;2023-05-07T18:12:22;15.9;40.4
67893;DHT22;54688;52.376;16.744;2023-05-07T18:15:24;15.6;41.4
67893;DHT22;54688;52.376;16.744;2023-05-07T18:18:27;15.3;41.8
67893;DHT22;54688;52.376;16.744;2023-05-07T18:21:28;15;42.4
67893;DHT22;54688;52.376;16.744;2023-05-07T18:24:30;14.7;42.9
67893;DHT22;54688;52.376;16.744;2023-05-07T18:27:32;14.4;44
67893;DHT22;54688;52.376;16.744;2023-05-07T18:30:34;14.1;44.6
67893;DHT22;54688;52.376;16.744;2023-05-07T18:33:36;13.9;45.7
67893;DHT22;54688;52.376;16.744;2023-05-07T18:36:38;13.7;46.2
67893;DHT22;54688;52.376;16.744;2023-05-07T18:39:40;13.4;47.1
67893;DHT22;54688;52.376;16.744;2023-05-07T18:42:42;13.2;47.5
67893;DHT22;54688;52.376;16.744;2023-05-07T18:45:45;13.1;47
67893;DHT22;54688;52.376;16.744;2023-05-07T18:48:48;12.9;48.4
67893;DHT22;54688;52.376;16.744;2023-05-07T18:51:51;12.7;49
67893;DHT22;54688;52.376;16.744;2023-05-07T18:54:53;12.5;49.7
67893;DHT22;54688;52.376;16.744;2023-05-07T18:57:55;12.3;50
67893;DHT22;54688;52.376;16.744;2023-05-07T19:00:57;12.1;50.5
67893;DHT22;54688;52.376;16.744;2023-05-07T19:04:00;12;51.7
67893;DHT22;54688;52.376;16.744;2023-05-07T19:07:02;11.8;51.9
67893;DHT22;54688;52.376;16.744;2023-05-07T19:10:04;11.6;52.7
67893;DHT22;54688;52.376;16.744;2023-05-07T19:13:07;11.4;53.5
67893;DHT22;54688;52.376;16.744;2023-05-07T19:16:09;11.4;53.9
67893;DHT22;54688;52.376;16.744;2023-05-07T19:19:11;11.2;53.6
67893;DHT22;54688;52.376;16.744;2023-05-07T19:22:13;11.1;55.2
67893;DHT22;54688;52.376;16.744;2023-05-07T19:25:15;11;55.3
67893;DHT22;54688;52.376;16.744;2023-05-07T19:28:17;10.9;55.7
67893;DHT22;54688;52.376;16.744;2023-05-07T19:31:19;10.7;57.2
67893;DHT22;54688;52.376;16.744;2023-05-07T19:34:22;10.6;55.1
67893;DHT22;54688;52.376;16.744;2023-05-07T19:37:24;10.5;56.1
67893;DHT22;54688;52.376;16.744;2023-05-07T19:40:26;10.4;55.8
67893;DHT22;54688;52.376;16.744;2023-05-07T19:43:29;10.2;56.5
67893;DHT22;54688;52.376;16.744;2023-05-07T19:46:31;10.1;56.4
67893;DHT22;54688;52.376;16.744;2023-05-07T19:49:33;10;56.8
67893;DHT22;54688;52.376;16.744;2023-05-07T19:52:36;9.8;57.6
67893;DHT22;54688;52.376;16.744;2023-05-07T19:55:38;9.7;57.5
67893;DHT22;54688;52.376;16.744;2023-05-07T19:58:40;9.5;57.8
67893;DHT22;54688;52.376;16.744;2023-05-07T20:01:43;9.4;58.3
67893;DHT22;54688;52.376;16.744;2023-05-07T20:04:45;9.2;59
67893;DHT22;54688;52.376;16.744;2023-05-07T20:07:46;9.1;59.6
67893;DHT22;54688;52.376;16.744;2023-05-07T20:10:48;9;60.1